sensor_id;sensor_type;location;lat;lon;timestamp;P1;durP1;ratioP1;P2;durP2;ratioP2
75516;SDS011;64097;52.548;13.406;2023-07-28T06:02:45;3.10;;;2.90;;
75516;SDS011;64097;52.548;13.406;2023-07-28T06:05:12;3.20;;;3.00;;
75516;SDS011;64097;52.548;13.406;2023-07-28T06:07:38;2.95;;;2.75;;
75516;SDS011;64097;52.548;13.406;2023-07-28T06:10:03;2.92;;;2.72;;
75516;SDS011;64097;52.548;13.406;2023-07-28T06:12:29;2.70;;;2.50;;
75516;SDS011;64097;52.548;13.406;2023-07-28T06:14:55;2.67;;;2.53;;
75516;SDS011;64097;52.548;13.406;2023-07-28T06:17:21;2.70;;;2.60;;
75516;SDS011;64097;52.548;13.406;2023-07-28T06:19:47;3.67;;;3.38;;
75516;SDS011;64097;52.548;13.406;2023-07-28T06:22:12;4.20;;;3.83;;
75516;SDS011;64097;52.548;13.406;2023-07-28T06:24:38;3.60;;;3.30;;
75516;SDS011;64097;52.548;13.406;2023-07-28T06:27:04;3.13;;;2.83;;
75516;SDS011;64097;52.548;13.406;2023-07-28T06:29:33;3.60;;;3.30;;
75516;SDS011;64097;52.548;13.406;2023-07-28T06:31:59;3.25;;;3.05;;
75516;SDS011;64097;52.548;13.406;2023-07-28T06:34:24;3.35;;;3.05;;
75516;SDS011;64097;52.548;13.406;2023-07-28T06:36:50;3.05;;;2.85;;
75516;SDS011;64097;52.548;13.406;2023-07-28T06:39:16;3.13;;;2.90;;
75516;SDS011;64097;52.548;13.406;2023-07-28T06:41:41;2.80;;;2.60;;
75516;SDS011;64097;52.548;13.406;2023-07-28T06:44:07;3.20;;;2.95;;
75516;SDS011;64097;52.548;13.406;2023-07-28T06:46:33;3.15;;;2.85;;
75516;SDS011;64097;52.548;13.406;2023-07-28T06:48:59;3.20;;;2.97;;
75516;SDS011;64097;52.548;13.406;2023-07-28T06:51:24;3.55;;;2.75;;
75516;SDS011;64097;52.548;13.406;2023-07-28T06:53:51;2.58;;;2.38;;
75516;SDS011;64097;52.548;13.406;2023-07-28T06:56:16;3.15;;;2.70;;
75516;SDS011;64097;52.548;13.406;2023-07-28T06:58:42;2.70;;;2.50;;
75516;SDS011;64097;52.548;13.406;2023-07-28T07:01:08;3.00;;;2.70;;
75516;SDS011;64097;52.548;13.406;2023-07-28T07:03:37;2.60;;;2.50;;
75516;SDS011;64097;52.548;13.406;2023-07-28T07:06:02;2.60;;;2.40;;
75516;SDS011;64097;52.548;13.406;2023-07-28T07:08:28;3.00;;;2.30;;
75516;SDS011;64097;52.548;13.406;2023-07-28T07:10:54;2.70;;;2.50;;
75516;SDS011;64097;52.548;13.406;2023-07-28T07:13:20;2.75;;;2.55;;
75516;SDS011;64097;52.548;13.406;2023-07-28T07:15:46;3.03;;;2.65;;
75516;SDS011;64097;52.548;13.406;2023-07-28T07:18:12;2.50;;;2.40;;
75516;SDS011;64097;52.548;13.406;2023-07-28T07:20:38;2.05;;;1.95;;
75516;SDS011;64097;52.548;13.406;2023-07-28T07:23:04;2.25;;;2.05;;
75516;SDS011;64097;52.548;13.406;2023-07-28T07:25:30;2.28;;;2.15;;
75516;SDS011;64097;52.548;13.406;2023-07-28T07:27:56;2.08;;;1.88;;
75516;SDS011;64097;52.548;13.406;2023-07-28T07:30:21;2.88;;;2.67;;
75516;SDS011;64097;52.548;13.406;2023-07-28T07:32:47;2.53;;;2.42;;
75516;SDS011;64097;52.548;13.406;2023-07-28T07:35:13;2.78;;;2.58;;
75516;SDS011;64097;52.548;13.406;2023-07-28T07:37:40;2.20;;;2.10;;
75516;SDS011;64097;52.548;13.406;2023-07-28T07:40:06;2.40;;;2.20;;
75516;SDS011;64097;52.548;13.406;2023-07-28T07:42:48;2.60;;;2.40;;
75516;SDS011;64097;52.548;13.406;2023-07-28T07:45:15;2.72;;;2.08;;
75516;SDS011;64097;52.548;13.406;2023-07-28T07:47:41;2.03;;;1.83;;
75516;SDS011;64097;52.548;13.406;2023-07-28T07:50:08;2.28;;;2.15;;
75516;SDS011;64097;52.548;13.406;2023-07-28T07:52:35;2.05;;;1.80;;
75516;SDS011;64097;52.548;13.406;2023-07-28T07:55:01;1.73;;;1.63;;
75516;SDS011;64097;52.548;13.406;2023-07-28T07:57:28;2.95;;;1.50;;
75516;SDS011;64097;52.548;13.406;2023-07-28T07:59:54;2.33;;;1.65;;
75516;SDS011;64097;52.548;13.406;2023-07-28T08:02:20;1.75;;;1.65;;
75516;SDS011;64097;52.548;13.406;2023-07-28T08:04:46;1.85;;;1.50;;
75516;SDS011;64097;52.548;13.406;2023-07-28T08:07:12;1.75;;;1.23;;
75516;SDS011;64097;52.548;13.406;2023-07-28T08:09:37;2.47;;;2.28;;
75516;SDS011;64097;52.548;13.406;2023-07-28T08:12:03;2.85;;;2.08;;
75516;SDS011;64097;52.548;13.406;2023-07-28T08:14:29;1.83;;;1.73;;
75516;SDS011;64097;52.548;13.406;2023-07-28T08:16:55;1.40;;;1.27;;
75516;SDS011;64097;52.548;13.406;2023-07-28T08:19:21;1.50;;;1.40;;
75516;SDS011;64097;52.548;13.406;2023-07-28T08:21:46;1.40;;;1.30;;
75516;SDS011;64097;52.548;13.406;2023-07-28T08:24:12;2.00;;;1.20;;
75516;SDS011;64097;52.548;13.406;2023-07-28T08:26:38;1.67;;;1.00;;
75516;SDS011;64097;52.548;13.406;2023-07-28T08:29:04;1.52;;;1.13;;
75516;SDS011;64097;52.548;13.406;2023-07-28T08:31:31;1.52;;;1.02;;
75516;SDS011;64097;52.548;13.406;2023-07-28T08:33:56;0.88;;;0.88;;
75516;SDS011;64097;52.548;13.406;2023-07-28T08:36:22;1.20;;;1.05;;
75516;SDS011;64097;52.548;13.406;2023-07-28T08:38:48;2.08;;;1.90;;
75516;SDS011;64097;52.548;13.406;2023-07-28T08:41:14;3.53;;;3.22;;
75516;SDS011;64097;52.548;13.406;2023-07-28T08:43:39;2.13;;;1.92;;
75516;SDS011;64097;52.548;13.406;2023-07-28T08:46:05;2.60;;;1.40;;
75516;SDS011;64097;52.548;13.406;2023-07-28T08:48:31;1.02;;;1.02;;
75516;SDS011;64097;52.548;13.406;2023-07-28T08:50:57;1.27;;;1.17;;
75516;SDS011;64097;52.548;13.406;2023-07-28T08:53:22;1.10;;;1.00;;
75516;SDS011;64097;52.548;13.406;2023-07-28T08:55:48;1.50;;;1.10;;
75516;SDS011;64097;52.548;13.406;2023-07-28T08:58:22;0.88;;;0.88;;
75516;SDS011;64097;52.548;13.406;2023-07-28T09:00:52;1.60;;;1.00;;
75516;SDS011;64097;52.548;13.406;2023-07-28T09:03:18;2.17;;;1.17;;
75516;SDS011;64097;52.548;13.406;2023-07-28T09:05:44;1.40;;;1.10;;
75516;SDS011;64097;52.548;13.406;2023-07-28T09:08:14;1.20;;;1.10;;
75516;SDS011;64097;52.548;13.406;2023-07-28T09:10:44;1.00;;;1.00;;
75516;SDS011;64097;52.548;13.406;2023-07-28T09:13:16;0.82;;;0.82;;
75516;SDS011;64097;52.548;13.406;2023-07-28T09:15:42;1.75;;;1.65;;
75516;SDS011;64097;52.548;13.406;2023-07-28T09:18:09;1.23;;;1.13;;
75516;SDS011;64097;52.548;13.406;2023-07-28T09:20:36;0.80;;;0.80;;
75516;SDS011;64097;52.548;13.406;2023-07-28T09:23:03;2.08;;;1.02;;
75516;SDS011;64097;52.548;13.406;2023-07-28T09:25:30;1.10;;;1.10;;
75516;SDS011;64097;52.548;13.406;2023-07-28T09:27:56;0.98;;;0.95;;
75516;SDS011;64097;52.548;13.406;2023-07-28T09:30:23;0.98;;;0.98;;
75516;SDS011;64097;52.548;13.406;2023-07-28T09:32:54;1.00;;;1.00;;
75516;SDS011;64097;52.548;13.406;2023-07-28T09:35:21;1.45;;;0.90;;
75516;SDS011;64097;52.548;13.406;2023-07-28T09:37:48;0.90;;;0.90;;
75516;SDS011;64097;52.548;13.406;2023-07-28T09:40:20;1.30;;;0.98;;
75516;SDS011;64097;52.548;13.406;2023-07-28T09:42:47;1.08;;;0.98;;
75516;SDS011;64097;52.548;13.406;2023-07-28T09:45:18;1.10;;;1.00;;
75516;SDS011;64097;52.548;13.406;2023-07-28T09:47:45;1.05;;;1.00;;
75516;SDS011;64097;52.548;13.406;2023-07-28T09:50:14;1.30;;;1.00;;
75516;SDS011;64097;52.548;13.406;2023-07-28T09:52:45;1.52;;;1.10;;
75516;SDS011;64097;52.548;13.406;2023-07-28T09:55:12;3.83;;;3.53;;
75516;SDS011;64097;52.548;13.406;2023-07-28T09:57:46;3.40;;;3.10;;
75516;SDS011;64097;52.548;13.406;2023-07-28T10:00:16;1.90;;;1.80;;
75516;SDS011;64097;52.548;13.406;2023-07-28T10:02:43;2.10;;;1.35;;
75516;SDS011;64097;52.548;13.406;2023-07-28T10:05:10;2.55;;;1.05;;
75516;SDS011;64097;52.548;13.406;2023-07-28T10:07:38;3.38;;;1.20;;
75516;SDS011;64097;52.548;13.406;2023-07-28T10:10:05;1.05;;;1.00;;
75516;SDS011;64097;52.548;13.406;2023-07-28T10:12:41;1.13;;;1.00;;
75516;SDS011;64097;52.548;13.406;2023-07-28T10:15:08;1.58;;;0.85;;
75516;SDS011;64097;52.548;13.406;2023-07-28T10:17:41;1.20;;;1.08;;
75516;SDS011;64097;52.548;13.406;2023-07-28T10:20:34;3.10;;;1.02;;
75516;SDS011;64097;52.548;13.406;2023-07-28T10:25:28;0.77;;;0.77;;
75516;SDS011;64097;52.548;13.406;2023-07-28T10:27:58;0.90;;;0.90;;
75516;SDS011;64097;52.548;13.406;2023-07-28T10:30:24;1.52;;;1.00;;
75516;SDS011;64097;52.548;13.406;2023-07-28T10:32:50;1.48;;;1.20;;
75516;SDS011;64097;52.548;13.406;2023-07-28T10:37:47;2.03;;;1.20;;
75516;SDS011;64097;52.548;13.406;2023-07-28T10:42:48;1.20;;;1.08;;
75516;SDS011;64097;52.548;13.406;2023-07-28T10:45:14;1.00;;;1.00;;
75516;SDS011;64097;52.548;13.406;2023-07-28T10:47:41;1.85;;;1.50;;
75516;SDS011;64097;52.548;13.406;2023-07-28T10:50:11;1.60;;;1.50;;
75516;SDS011;64097;52.548;13.406;2023-07-28T10:52:43;1.30;;;1.20;;
75516;SDS011;64097;52.548;13.406;2023-07-28T10:55:17;1.13;;;1.02;;
75516;SDS011;64097;52.548;13.406;2023-07-28T10:57:47;1.10;;;1.10;;
75516;SDS011;64097;52.548;13.406;2023-07-28T11:00:15;1.60;;;1.50;;
75516;SDS011;64097;52.548;13.406;2023-07-28T11:05:12;1.52;;;0.93;;
75516;SDS011;64097;52.548;13.406;2023-07-28T11:07:43;0.93;;;0.93;;
75516;SDS011;64097;52.548;13.406;2023-07-28T11:10:12;0.90;;;0.90;;
75516;SDS011;64097;52.548;13.406;2023-07-28T11:12:44;1.10;;;1.00;;
75516;SDS011;64097;52.548;13.406;2023-07-28T11:15:12;0.77;;;0.77;;
75516;SDS011;64097;52.548;13.406;2023-07-28T11:17:43;0.90;;;0.90;;
75516;SDS011;64097;52.548;13.406;2023-07-28T11:20:14;0.80;;;0.80;;
75516;SDS011;64097;52.548;13.406;2023-07-28T11:22:52;0.80;;;0.80;;
75516;SDS011;64097;52.548;13.406;2023-07-28T11:25:19;1.92;;;1.20;;
75516;SDS011;64097;52.548;13.406;2023-07-28T11:27:46;1.00;;;1.00;;
75516;SDS011;64097;52.548;13.406;2023-07-28T11:30:16;1.65;;;1.10;;
75516;SDS011;64097;52.548;13.406;2023-07-28T11:32:43;1.75;;;1.20;;
75516;SDS011;64097;52.548;13.406;2023-07-28T11:35:11;1.30;;;1.20;;
75516;SDS011;64097;52.548;13.406;2023-07-28T11:37:38;1.10;;;1.00;;
75516;SDS011;64097;52.548;13.406;2023-07-28T11:40:06;1.20;;;1.00;;
75516;SDS011;64097;52.548;13.406;2023-07-28T11:42:36;1.23;;;1.13;;
75516;SDS011;64097;52.548;13.406;2023-07-28T11:45:03;1.30;;;1.17;;
75516;SDS011;64097;52.548;13.406;2023-07-28T11:47:30;1.15;;;0.90;;
75516;SDS011;64097;52.548;13.406;2023-07-28T11:49:56;1.05;;;0.95;;
75516;SDS011;64097;52.548;13.406;2023-07-28T11:52:32;1.20;;;1.10;;
75516;SDS011;64097;52.548;13.406;2023-07-28T11:55:04;1.08;;;1.00;;
75516;SDS011;64097;52.548;13.406;2023-07-28T11:57:31;1.30;;;1.10;;
75516;SDS011;64097;52.548;13.406;2023-07-28T12:00:01;1.30;;;1.20;;
75516;SDS011;64097;52.548;13.406;2023-07-28T12:02:30;1.30;;;1.20;;
75516;SDS011;64097;52.548;13.406;2023-07-28T12:04:58;1.90;;;1.27;;
75516;SDS011;64097;52.548;13.406;2023-07-28T12:07:31;1.05;;;0.90;;
75516;SDS011;64097;52.548;13.406;2023-07-28T12:09:57;1.92;;;1.83;;
75516;SDS011;64097;52.548;13.406;2023-07-28T12:12:38;1.38;;;1.27;;
75516;SDS011;64097;52.548;13.406;2023-07-28T12:15:27;1.25;;;1.15;;
75516;SDS011;64097;52.548;13.406;2023-07-28T12:18:12;1.30;;;1.10;;
75516;SDS011;64097;52.548;13.406;2023-07-28T12:20:42;1.23;;;1.10;;
75516;SDS011;64097;52.548;13.406;2023-07-28T12:23:13;1.05;;;0.95;;
75516;SDS011;64097;52.548;13.406;2023-07-28T12:25:40;1.23;;;1.13;;
75516;SDS011;64097;52.548;13.406;2023-07-28T12:28:06;1.17;;;1.13;;
75516;SDS011;64097;52.548;13.406;2023-07-28T12:30:33;1.67;;;1.58;;
75516;SDS011;64097;52.548;13.406;2023-07-28T12:32:59;1.85;;;1.15;;
75516;SDS011;64097;52.548;13.406;2023-07-28T12:35:25;1.02;;;0.98;;
75516;SDS011;64097;52.548;13.406;2023-07-28T12:37:56;2.38;;;1.10;;
75516;SDS011;64097;52.548;13.406;2023-07-28T12:40:25;1.20;;;1.10;;
75516;SDS011;64097;52.548;13.406;2023-07-28T12:42:51;1.75;;;0.90;;
75516;SDS011;64097;52.548;13.406;2023-07-28T12:45:17;1.05;;;1.05;;
75516;SDS011;64097;52.548;13.406;2023-07-28T12:47:42;1.48;;;1.13;;
75516;SDS011;64097;52.548;13.406;2023-07-28T12:50:08;1.17;;;1.08;;
75516;SDS011;64097;52.548;13.406;2023-07-28T12:52:35;1.20;;;1.10;;
75516;SDS011;64097;52.548;13.406;2023-07-28T12:55:01;0.70;;;0.70;;
75516;SDS011;64097;52.548;13.406;2023-07-28T12:57:27;0.88;;;0.80;;
75516;SDS011;64097;52.548;13.406;2023-07-28T12:59:53;1.25;;;1.00;;
75516;SDS011;64097;52.548;13.406;2023-07-28T13:02:19;1.05;;;0.93;;
75516;SDS011;64097;52.548;13.406;2023-07-28T13:04:44;1.23;;;0.90;;
75516;SDS011;64097;52.548;13.406;2023-07-28T13:07:10;1.08;;;0.98;;
75516;SDS011;64097;52.548;13.406;2023-07-28T13:09:36;0.98;;;0.90;;
75516;SDS011;64097;52.548;13.406;2023-07-28T13:12:02;1.20;;;1.10;;
75516;SDS011;64097;52.548;13.406;2023-07-28T13:14:28;0.65;;;0.65;;
75516;SDS011;64097;52.548;13.406;2023-07-28T13:16:53;1.58;;;1.10;;
75516;SDS011;64097;52.548;13.406;2023-07-28T13:19:19;0.85;;;0.85;;
75516;SDS011;64097;52.548;13.406;2023-07-28T13:21:45;0.95;;;0.90;;
75516;SDS011;64097;52.548;13.406;2023-07-28T13:24:11;1.05;;;1.00;;
75516;SDS011;64097;52.548;13.406;2023-07-28T13:26:36;0.80;;;0.80;;
75516;SDS011;64097;52.548;13.406;2023-07-28T13:29:03;0.95;;;0.95;;
75516;SDS011;64097;52.548;13.406;2023-07-28T13:31:32;1.58;;;1.00;;
75516;SDS011;64097;52.548;13.406;2023-07-28T13:33:58;1.08;;;0.98;;
75516;SDS011;64097;52.548;13.406;2023-07-28T13:36:23;0.93;;;0.82;;
75516;SDS011;64097;52.548;13.406;2023-07-28T13:38:49;1.00;;;0.90;;
75516;SDS011;64097;52.548;13.406;2023-07-28T13:41:15;1.75;;;1.00;;
75516;SDS011;64097;52.548;13.406;2023-07-28T13:43:40;1.02;;;0.95;;
75516;SDS011;64097;52.548;13.406;2023-07-28T13:46:06;1.00;;;1.00;;
75516;SDS011;64097;52.548;13.406;2023-07-28T13:48:33;0.90;;;0.85;;
75516;SDS011;64097;52.548;13.406;2023-07-28T13:51:01;0.80;;;0.80;;
75516;SDS011;64097;52.548;13.406;2023-07-28T13:53:27;1.20;;;1.10;;
75516;SDS011;64097;52.548;13.406;2023-07-28T13:55:53;1.10;;;1.00;;
75516;SDS011;64097;52.548;13.406;2023-07-28T13:58:20;0.80;;;0.80;;
